createdAt,value
2023-04-20T00:00:35.278Z,93.80
2023-04-20T00:03:03.614Z,94.39
2023-04-20T00:05:32.111Z,95.45
2023-04-20T00:07:59.322Z,95.06
2023-04-20T00:10:26.383Z,94.49
2023-04-20T00:12:53.280Z,93.02
2023-04-20T00:15:20.537Z,93.42
2023-04-20T00:17:48.682Z,92.22
2023-04-20T00:20:15.651Z,92.64
2023-04-20T00:22:42.997Z,92.50
2023-04-20T00:25:10.146Z,92.58
2023-04-20T00:27:37.267Z,93.06
2023-04-20T00:30:04.601Z,93.40
2023-04-20T00:32:31.752Z,93.70
2023-04-20T00:34:58.821Z,93.41
2023-04-20T00:37:25.860Z,92.20
2023-04-20T00:39:52.953Z,92.00
2023-04-20T00:42:21.031Z,91.12
2023-04-20T00:44:47.959Z,90.62
2023-04-20T00:47:16.417Z,88.18
2023-04-20T00:49:43.428Z,87.71
2023-04-20T00:52:10.606Z,87.62
2023-04-20T00:54:37.859Z,87.47
2023-04-20T00:57:05.154Z,86.64
2023-04-20T00:59:33.095Z,87.41
2023-04-20T01:02:00.356Z,88.49
2023-04-20T01:04:27.803Z,87.76
2023-04-20T01:06:54.792Z,86.64
2023-04-20T01:09:21.849Z,87.36
2023-04-20T01:11:49.088Z,87.65
2023-04-20T01:14:15.969Z,86.88
2023-04-20T01:16:44.742Z,86.98
2023-04-20T01:19:11.986Z,86.61
2023-04-20T01:21:38.908Z,85.74
2023-04-20T01:24:07.077Z,85.41
2023-04-20T01:26:34.053Z,85.84
2023-04-20T01:29:00.965Z,88.63
2023-04-20T01:31:27.950Z,89.35
2023-04-20T01:33:54.868Z,89.65
2023-04-20T01:36:22.304Z,87.93
2023-04-20T01:38:49.685Z,87.59
2023-04-20T01:41:17.672Z,89.28
2023-04-20T01:43:44.776Z,88.74
2023-04-20T01:46:11.746Z,87.71
2023-04-20T01:48:38.643Z,88.59
2023-04-20T01:51:05.769Z,88.91
2023-04-20T01:53:32.777Z,88.75
2023-04-20T01:55:59.791Z,89.37
2023-04-20T01:58:26.725Z,88.87
2023-04-20T02:00:53.618Z,88.82
2023-04-20T02:03:21.724Z,89.57
2023-04-20T02:05:49.034Z,88.86
2023-04-20T02:08:15.977Z,88.83
2023-04-20T02:10:42.934Z,89.00
2023-04-20T02:13:09.988Z,87.74
2023-04-20T02:15:37.391Z,88.27
2023-04-20T02:18:04.710Z,87.54
2023-04-20T02:20:31.742Z,87.38
2023-04-20T02:22:58.699Z,87.65
2023-04-20T02:25:25.676Z,87.71
2023-04-20T02:27:52.671Z,88.62
2023-04-20T02:30:19.645Z,88.80
2023-04-20T02:32:46.582Z,89.52
2023-04-20T02:35:13.551Z,89.72
2023-04-20T02:37:40.701Z,89.59
2023-04-20T02:40:08.681Z,88.60
2023-04-20T02:42:35.876Z,88.06
2023-04-20T02:45:02.954Z,88.11
2023-04-20T02:47:30.085Z,88.38
2023-04-20T02:49:57.231Z,87.81
2023-04-20T02:52:24.216Z,87.03
2023-04-20T02:54:51.074Z,87.50
2023-04-20T02:57:18.143Z,89.00
2023-04-20T02:59:45.196Z,90.41
2023-04-20T03:02:12.386Z,90.73
2023-04-20T03:04:39.727Z,90.38
2023-04-20T03:07:07.291Z,92.16
2023-04-20T03:09:34.275Z,91.90
2023-04-20T03:12:02.593Z,91.24
2023-04-20T03:14:29.770Z,90.21
2023-04-20T03:16:57.162Z,89.92
2023-04-20T03:19:24.507Z,89.72
2023-04-20T03:21:51.382Z,89.69
2023-04-20T03:24:19.160Z,90.08
2023-04-20T03:26:46.142Z,91.88
2023-04-20T03:29:13.238Z,94.36
2023-04-20T03:31:40.328Z,95.08
2023-04-20T03:34:07.257Z,95.07
2023-04-20T03:36:34.312Z,92.69
2023-04-20T03:39:01.316Z,91.71
2023-04-20T03:41:28.212Z,93.28
2023-04-20T03:43:55.112Z,94.39
2023-04-20T03:46:23.247Z,94.84
2023-04-20T03:48:50.904Z,93.90
2023-04-20T03:51:18.013Z,94.86
2023-04-20T03:53:44.888Z,95.59
2023-04-20T03:56:11.881Z,95.88
2023-04-20T03:58:38.937Z,96.52
2023-04-20T04:01:10.637Z,96.44
2023-04-20T04:03:37.719Z,93.96
2023-04-20T04:06:05.530Z,92.68
2023-04-20T04:08:32.513Z,93.49
2023-04-20T04:11:00.656Z,93.77
2023-04-20T04:13:27.606Z,94.98
2023-04-20T04:15:54.542Z,95.05
2023-04-20T04:18:22.030Z,95.21
2023-04-20T04:20:49.256Z,95.57
2023-04-20T04:23:16.340Z,93.11
2023-04-20T04:25:43.381Z,94.58
2023-04-20T04:28:10.685Z,95.03
2023-04-20T04:30:37.630Z,95.14
2023-04-20T04:33:05.094Z,94.53
2023-04-20T04:35:33.363Z,94.90
2023-04-20T04:38:00.986Z,95.58
2023-04-20T04:40:27.997Z,93.93
2023-04-20T04:42:55.588Z,93.42
2023-04-20T04:45:25.252Z,94.80
2023-04-20T04:47:53.896Z,94.34
2023-04-20T04:50:22.157Z,93.20
2023-04-20T04:52:49.242Z,90.34
2023-04-20T04:55:17.215Z,91.15
2023-04-20T04:57:44.419Z,94.31
2023-04-20T05:00:12.718Z,96.85
2023-04-20T05:02:40.198Z,97.34
2023-04-20T05:05:10.074Z,96.21
2023-04-20T05:07:38.457Z,96.57
2023-04-20T05:10:06.995Z,96.04
2023-04-20T05:12:34.120Z,95.46
2023-04-20T05:15:01.086Z,93.01
2023-04-20T05:17:28.100Z,92.00
2023-04-20T05:19:55.044Z,91.48
2023-04-20T05:22:22.024Z,92.17
2023-04-20T05:24:48.985Z,90.64
2023-04-20T05:27:15.954Z,93.06
2023-04-20T05:29:42.848Z,90.82
2023-04-20T05:32:09.918Z,91.68
2023-04-20T05:34:36.863Z,91.39
2023-04-20T05:37:06.103Z,92.82
2023-04-20T05:39:33.178Z,94.67
2023-04-20T05:42:00.153Z,93.44
2023-04-20T05:44:27.166Z,91.34
2023-04-20T05:46:54.145Z,91.65
2023-04-20T05:49:21.513Z,91.81
2023-04-20T05:51:48.634Z,91.33
2023-04-20T05:54:15.652Z,89.57
2023-04-20T05:56:42.627Z,88.51
2023-04-20T05:59:10.029Z,88.26
2023-04-20T06:01:36.988Z,86.59
2023-04-20T06:04:04.339Z,87.44
2023-04-20T06:06:31.551Z,87.23
2023-04-20T06:08:59.338Z,85.27
2023-04-20T06:11:26.430Z,85.39
2023-04-20T06:13:53.403Z,85.96
2023-04-20T06:16:20.642Z,86.50
2023-04-20T06:18:47.618Z,86.71
2023-04-20T06:21:14.760Z,85.72
2023-04-20T06:23:42.458Z,84.77
2023-04-20T06:26:10.304Z,85.78
2023-04-20T06:28:38.005Z,85.97
2023-04-20T06:31:05.609Z,85.30
2023-04-20T06:33:32.580Z,82.33
2023-04-20T06:35:59.546Z,81.76
2023-04-20T06:38:26.834Z,82.01
2023-04-20T06:40:53.751Z,84.27
2023-04-20T06:43:20.929Z,81.71
2023-04-20T06:45:48.058Z,83.54
2023-04-20T06:48:30.806Z,82.32
2023-04-20T06:50:59.463Z,82.68
2023-04-20T06:53:26.535Z,82.46
2023-04-20T06:55:57.209Z,82.01
2023-04-20T06:58:24.276Z,82.15
2023-04-20T07:00:51.237Z,82.14
2023-04-20T07:03:19.331Z,81.22
2023-04-20T07:05:46.733Z,81.11
2023-04-20T07:08:15.897Z,81.89
2023-04-20T07:10:43.244Z,81.61
2023-04-20T07:13:10.204Z,81.82
2023-04-20T07:15:37.235Z,78.75
2023-04-20T07:18:04.295Z,81.23
2023-04-20T07:20:31.707Z,79.81
2023-04-20T07:22:58.639Z,80.14
2023-04-20T07:25:25.949Z,79.81
2023-04-20T07:27:53.036Z,79.17
2023-04-20T07:30:20.132Z,79.46
2023-04-20T07:32:47.350Z,78.40
2023-04-20T07:35:14.533Z,78.77
2023-04-20T07:37:41.834Z,80.95
2023-04-20T07:40:09.782Z,78.11
2023-04-20T07:42:37.451Z,77.07
2023-04-20T07:45:08.481Z,79.77
2023-04-20T07:47:36.225Z,77.09
2023-04-20T07:50:05.103Z,77.77
2023-04-20T07:52:32.391Z,78.52
2023-04-20T07:54:59.786Z,76.98
2023-04-20T07:57:28.440Z,76.67
2023-04-20T07:59:55.427Z,76.95
2023-04-20T08:02:22.563Z,77.67
2023-04-20T08:04:50.180Z,76.87
2023-04-20T08:07:17.944Z,76.38
2023-04-20T08:09:45.861Z,76.48
2023-04-20T08:12:13.087Z,76.81
2023-04-20T08:14:41.301Z,76.66
2023-04-20T08:17:08.390Z,78.37
2023-04-20T08:19:35.339Z,76.73
2023-04-20T08:22:03.456Z,77.21
2023-04-20T08:24:30.787Z,76.72
2023-04-20T08:26:59.256Z,76.32
2023-04-20T08:29:26.499Z,76.76
2023-04-20T08:31:53.474Z,75.60
2023-04-20T08:34:20.536Z,75.99
2023-04-20T08:36:47.735Z,74.23
2023-04-20T08:39:19.736Z,76.28
2023-04-20T08:41:47.948Z,75.85
2023-04-20T08:44:15.282Z,74.90
2023-04-20T08:46:47.411Z,74.27
2023-04-20T08:49:17.390Z,77.74
2023-04-20T08:51:46.438Z,77.74
2023-04-20T08:54:13.573Z,75.93
2023-04-20T08:56:44.679Z,75.27
2023-04-20T08:59:14.173Z,74.88
2023-04-20T09:01:44.968Z,74.13
2023-04-20T09:04:22.859Z,71.86
2023-04-20T09:06:53.277Z,73.14
2023-04-20T09:09:22.716Z,71.80
2023-04-20T09:12:10.303Z,72.75
2023-04-20T09:14:45.358Z,73.41
2023-04-20T09:17:14.725Z,73.75
2023-04-20T09:19:44.936Z,74.57
2023-04-20T09:22:12.636Z,75.71
2023-04-20T09:24:41.294Z,74.83
2023-04-20T09:27:19.170Z,73.04
2023-04-20T09:30:03.705Z,73.95
2023-04-20T09:32:31.111Z,73.98
2023-04-20T09:34:58.073Z,71.72
2023-04-20T09:37:25.653Z,70.48
2023-04-20T09:40:00.110Z,71.26
2023-04-20T09:42:29.077Z,71.08
2023-04-20T09:44:57.429Z,68.79
2023-04-20T09:47:26.684Z,71.69
2023-04-20T09:49:54.757Z,68.83
2023-04-20T09:52:23.398Z,69.91
2023-04-20T09:54:51.866Z,68.88
2023-04-20T09:57:19.860Z,67.76
2023-04-20T09:59:47.424Z,69.93
2023-04-20T10:02:14.924Z,69.31
2023-04-20T10:04:59.193Z,71.75
2023-04-20T10:07:28.316Z,70.77
2023-04-20T10:10:16.256Z,71.84
2023-04-20T10:12:56.116Z,73.19
2023-04-20T10:15:25.015Z,71.93
2023-04-20T10:17:53.446Z,72.96
2023-04-20T10:20:27.560Z,71.99
2023-04-20T10:23:10.425Z,70.33
2023-04-20T10:25:37.811Z,70.44
2023-04-20T10:28:09.476Z,70.65
2023-04-20T10:30:37.954Z,70.81
2023-04-20T10:33:11.361Z,72.14
2023-04-20T10:35:58.983Z,72.94
2023-04-20T10:38:30.417Z,73.67
2023-04-20T10:41:07.460Z,73.50
2023-04-20T10:43:35.510Z,72.03
2023-04-20T10:46:02.434Z,70.81
2023-04-20T10:48:29.497Z,71.37
2023-04-20T10:50:56.408Z,70.29
2023-04-20T10:53:24.203Z,70.08
2023-04-20T10:56:01.031Z,70.96
2023-04-20T10:58:28.228Z,68.61
2023-04-20T11:01:04.105Z,71.73
2023-04-20T11:03:34.346Z,70.37
2023-04-20T11:06:03.894Z,71.39
2023-04-20T11:08:39.866Z,70.71
2023-04-20T11:11:24.681Z,69.97
2023-04-20T11:13:51.997Z,70.83
2023-04-20T11:16:19.779Z,71.83
2023-04-20T11:18:55.768Z,72.66
2023-04-20T11:21:23.108Z,72.28
2023-04-20T11:23:50.647Z,70.21
2023-04-20T11:26:18.096Z,72.34
2023-04-20T11:28:55.586Z,72.33
2023-04-20T11:31:23.621Z,70.87
2023-04-20T11:33:50.849Z,71.32
2023-04-20T11:36:23.470Z,70.80
2023-04-20T11:38:51.441Z,68.92
2023-04-20T11:41:18.766Z,73.22
2023-04-20T11:43:46.323Z,71.12
2023-04-20T11:46:15.670Z,71.38
2023-04-20T11:48:43.231Z,68.69
2023-04-20T11:51:10.360Z,69.59
2023-04-20T11:53:38.012Z,71.71
2023-04-20T11:56:05.916Z,75.33
2023-04-20T11:58:33.001Z,75.78
2023-04-20T12:01:00.246Z,74.04
2023-04-20T12:03:27.721Z,75.88
2023-04-20T12:05:55.112Z,77.09
2023-04-20T12:08:23.993Z,79.31
2023-04-20T12:10:50.937Z,81.44
2023-04-20T12:13:17.865Z,82.97
2023-04-20T12:15:45.057Z,82.35
2023-04-20T12:18:12.067Z,83.84
2023-04-20T12:20:39.029Z,85.20
2023-04-20T12:23:06.036Z,86.56
2023-04-20T12:25:33.052Z,88.68
2023-04-20T12:28:01.352Z,87.68
2023-04-20T12:30:28.352Z,88.91
2023-04-20T12:32:55.827Z,88.40
2023-04-20T12:35:22.944Z,90.88
2023-04-20T12:37:50.065Z,91.38
2023-04-20T12:40:17.024Z,89.95
2023-04-20T12:42:43.996Z,89.16
2023-04-20T12:45:11.369Z,87.63
2023-04-20T12:47:38.315Z,86.06
2023-04-20T12:50:07.356Z,84.14
2023-04-20T12:52:34.604Z,77.73
2023-04-20T12:55:01.759Z,77.62
2023-04-20T12:57:28.705Z,76.41
2023-04-20T12:59:56.692Z,77.57
2023-04-20T13:02:23.716Z,77.87
2023-04-20T13:04:52.523Z,78.48
2023-04-20T13:07:19.517Z,77.64
2023-04-20T13:09:46.495Z,78.80
2023-04-20T13:12:13.548Z,78.85
2023-04-20T13:14:40.531Z,79.11
2023-04-20T13:17:07.615Z,78.09
2023-04-20T13:19:35.193Z,77.87
2023-04-20T13:22:02.089Z,72.87
2023-04-20T13:24:29.047Z,71.47
2023-04-20T13:26:56.697Z,70.83
2023-04-20T13:29:25.216Z,70.21
2023-04-20T13:31:52.296Z,72.39
2023-04-20T13:34:19.592Z,72.62
2023-04-20T13:36:47.258Z,72.20
2023-04-20T13:39:14.877Z,72.86
2023-04-20T13:41:41.862Z,71.68
2023-04-20T13:44:15.762Z,72.07
2023-04-20T13:46:45.008Z,72.77
2023-04-20T13:49:13.475Z,72.55
2023-04-20T13:51:40.991Z,72.39
2023-04-20T13:54:07.994Z,73.90
2023-04-20T13:56:35.178Z,78.07
2023-04-20T13:59:04.008Z,80.49
2023-04-20T14:01:31.536Z,80.61
2023-04-20T14:03:58.672Z,81.39
2023-04-20T14:06:26.445Z,81.69
2023-04-20T14:08:53.807Z,82.19
2023-04-20T14:11:20.705Z,84.19
2023-04-20T14:13:47.676Z,83.77
2023-04-20T14:16:14.860Z,85.20
2023-04-20T14:18:42.077Z,85.11
2023-04-20T14:21:09.338Z,86.04
2023-04-20T14:23:36.417Z,85.76
2023-04-20T14:26:03.995Z,86.25
2023-04-20T14:28:33.412Z,89.60
2023-04-20T14:31:04.459Z,91.17
2023-04-20T14:33:31.493Z,90.72
2023-04-20T14:35:58.379Z,90.48
2023-04-20T14:38:25.306Z,92.47
2023-04-20T14:40:52.489Z,97.42
2023-04-20T14:43:20.101Z,95.69
2023-04-20T14:45:47.120Z,95.52
2023-04-20T14:48:14.024Z,95.26
2023-04-20T14:50:42.349Z,96.13
2023-04-20T14:53:10.107Z,96.07
2023-04-20T14:55:37.134Z,96.46
2023-04-20T14:58:04.082Z,98.16
2023-04-20T15:00:31.148Z,96.93
2023-04-20T15:02:59.552Z,98.31
2023-04-20T15:05:28.070Z,99.30
2023-04-20T15:07:57.133Z,98.01
2023-04-20T15:10:24.453Z,99.14
2023-04-20T15:12:51.561Z,97.88
2023-04-20T15:15:18.643Z,96.45
2023-04-20T15:17:46.847Z,97.86
2023-04-20T15:20:17.054Z,98.63
2023-04-20T15:22:44.029Z,98.58
2023-04-20T15:25:11.175Z,96.17
2023-04-20T15:27:38.456Z,97.03
2023-04-20T15:30:06.578Z,96.20
2023-04-20T15:32:34.015Z,97.89
2023-04-20T15:35:01.345Z,95.52
2023-04-20T15:37:28.513Z,95.60
2023-04-20T15:39:55.940Z,99.26
2023-04-20T15:42:23.019Z,99.15
2023-04-20T15:44:49.941Z,99.58
2023-04-20T15:47:16.830Z,96.94
2023-04-20T15:49:44.088Z,93.98
2023-04-20T15:52:11.161Z,94.15
2023-04-20T15:54:38.495Z,92.96
2023-04-20T15:57:05.450Z,95.55
2023-04-20T15:59:32.825Z,95.72
2023-04-20T16:01:59.993Z,96.34
2023-04-20T16:04:27.065Z,95.63
2023-04-20T16:06:54.390Z,94.30
2023-04-20T16:09:23.400Z,95.24
2023-04-20T16:11:50.862Z,97.76
2023-04-20T16:14:18.072Z,97.47
2023-04-20T16:16:45.402Z,96.42
2023-04-20T16:19:13.766Z,96.24
2023-04-20T16:21:41.027Z,94.52
2023-04-20T16:24:07.937Z,97.11
2023-04-20T16:26:34.893Z,97.59
2023-04-20T16:29:02.066Z,96.48
2023-04-20T16:31:29.894Z,95.53
2023-04-20T16:33:58.591Z,95.73
2023-04-20T16:36:26.678Z,95.26
2023-04-20T16:38:53.668Z,98.20
2023-04-20T16:41:20.847Z,97.57
2023-04-20T16:43:48.121Z,96.45
2023-04-20T16:46:16.365Z,95.00
2023-04-20T16:48:44.097Z,95.51
2023-04-20T16:51:11.161Z,95.98
2023-04-20T16:53:38.069Z,99.33
2023-04-20T16:56:05.698Z,99.38
2023-04-20T16:58:32.674Z,97.23
2023-04-20T17:00:59.737Z,96.83
2023-04-20T17:03:26.952Z,97.71
2023-04-20T17:05:54.044Z,96.05
2023-04-20T17:08:21.842Z,96.90
2023-04-20T17:10:48.756Z,95.77
2023-04-20T17:13:15.809Z,94.52
2023-04-20T17:15:45.054Z,93.48
2023-04-20T17:18:12.242Z,93.20
2023-04-20T17:20:39.163Z,95.41
2023-04-20T17:23:06.084Z,96.63
2023-04-20T17:25:33.146Z,95.45
2023-04-20T17:28:00.172Z,96.38
2023-04-20T17:30:27.105Z,96.06
2023-04-20T17:32:54.355Z,94.10
2023-04-20T17:35:22.602Z,93.13
2023-04-20T17:37:49.650Z,93.47
2023-04-20T17:40:16.576Z,96.92
2023-04-20T17:42:43.549Z,98.77
2023-04-20T17:45:11.716Z,97.38
2023-04-20T17:47:38.668Z,97.69
2023-04-20T17:50:06.860Z,99.07
2023-04-20T17:52:33.792Z,98.66
2023-04-20T17:55:00.785Z,97.56
2023-04-20T17:57:28.568Z,98.45
2023-04-20T17:59:55.691Z,98.97
2023-04-20T18:02:24.988Z,100.00
2023-04-20T18:04:52.462Z,100.00
2023-04-20T18:07:19.556Z,100.00
2023-04-20T18:09:46.530Z,100.00
2023-04-20T18:12:13.528Z,100.00
2023-04-20T18:14:41.175Z,100.00
2023-04-20T18:17:08.604Z,100.00
2023-04-20T18:19:35.575Z,100.00
2023-04-20T18:22:02.632Z,100.00
2023-04-20T18:24:29.768Z,100.00
2023-04-20T18:26:56.761Z,100.00
2023-04-20T18:29:23.771Z,100.00
2023-04-20T18:31:53.379Z,100.00
2023-04-20T18:34:20.546Z,100.00
2023-04-20T18:36:47.752Z,100.00
2023-04-20T18:39:15.108Z,100.00
2023-04-20T18:41:42.201Z,100.00
2023-04-20T18:44:09.116Z,100.00
2023-04-20T18:46:36.183Z,100.00
2023-04-20T18:49:03.198Z,100.00
2023-04-20T18:51:32.104Z,100.00
2023-04-20T18:53:59.106Z,100.00
2023-04-20T18:56:26.084Z,100.00
2023-04-20T18:58:53.046Z,100.00
2023-04-20T19:01:20.157Z,100.00
2023-04-20T19:03:48.215Z,100.00
2023-04-20T19:06:15.406Z,100.00
2023-04-20T19:08:42.370Z,100.00
2023-04-20T19:11:09.321Z,100.00
2023-04-20T19:13:36.539Z,100.00
2023-04-20T19:16:04.656Z,100.00
2023-04-20T19:18:31.671Z,100.00
2023-04-20T19:20:58.636Z,100.00
2023-04-20T19:23:25.732Z,100.00
2023-04-20T19:25:52.669Z,100.00
2023-04-20T19:28:19.655Z,100.00
2023-04-20T19:30:46.731Z,100.00
2023-04-20T19:33:13.737Z,100.00
2023-04-20T19:35:43.452Z,100.00
2023-04-20T19:38:10.333Z,100.00
2023-04-20T19:40:37.333Z,100.00
2023-04-20T19:43:04.356Z,100.00
2023-04-20T19:45:31.296Z,100.00
2023-04-20T19:47:58.309Z,100.00
2023-04-20T19:50:25.503Z,100.00
2023-04-20T19:52:52.434Z,100.00
2023-04-20T19:55:19.374Z,100.00
2023-04-20T19:57:46.279Z,100.00
2023-04-20T20:00:13.527Z,100.00
2023-04-20T20:02:41.537Z,100.00
2023-04-20T20:05:09.384Z,100.00
2023-04-20T20:07:37.008Z,100.00
2023-04-20T20:10:04.592Z,100.00
2023-04-20T20:12:31.613Z,100.00
2023-04-20T20:14:59.494Z,100.00
2023-04-20T20:17:26.522Z,100.00
2023-04-20T20:19:55.780Z,100.00
2023-04-20T20:22:22.943Z,100.00
2023-04-20T20:24:54.056Z,100.00
2023-04-20T20:27:21.669Z,100.00
2023-04-20T20:29:49.039Z,100.00
2023-04-20T20:32:15.996Z,100.00
2023-04-20T20:34:43.208Z,100.00
2023-04-20T20:37:12.777Z,100.00
2023-04-20T20:39:39.798Z,100.00
2023-04-20T20:42:08.954Z,100.00
2023-04-20T20:44:39.720Z,100.00
2023-04-20T20:47:06.833Z,100.00
2023-04-20T20:49:33.963Z,100.00
2023-04-20T20:52:02.313Z,100.00
2023-04-20T20:54:29.478Z,100.00
2023-04-20T20:56:57.555Z,100.00
2023-04-20T20:59:24.599Z,100.00
2023-04-20T21:01:51.686Z,100.00
2023-04-20T21:04:18.738Z,100.00
2023-04-20T21:06:45.677Z,100.00
2023-04-20T21:09:14.707Z,100.00
2023-04-20T21:11:41.615Z,100.00
2023-04-20T21:14:08.553Z,100.00
2023-04-20T21:16:35.463Z,100.00
2023-04-20T21:19:02.480Z,100.00
2023-04-20T21:21:29.346Z,100.00
2023-04-20T21:23:56.238Z,100.00
2023-04-20T21:26:24.252Z,100.00
2023-04-20T21:28:51.144Z,100.00
2023-04-20T21:31:18.177Z,100.00
2023-04-20T21:33:45.160Z,100.00
2023-04-20T21:36:12.088Z,100.00
2023-04-20T21:38:39.359Z,100.00
2023-04-20T21:41:06.327Z,100.00
2023-04-20T21:43:33.235Z,100.00
2023-04-20T21:46:00.226Z,100.00
2023-04-20T21:48:27.130Z,100.00
2023-04-20T21:50:54.000Z,100.00
2023-04-20T21:53:21.235Z,100.00
2023-04-20T21:55:48.161Z,100.00
2023-04-20T21:58:15.789Z,100.00
2023-04-20T22:00:42.649Z,100.00
2023-04-20T22:03:09.739Z,100.00
2023-04-20T22:05:36.840Z,100.00
2023-04-20T22:08:03.916Z,100.00
2023-04-20T22:10:30.918Z,100.00
2023-04-20T22:12:57.907Z,100.00
2023-04-20T22:15:26.149Z,100.00
2023-04-20T22:17:53.053Z,100.00
2023-04-20T22:20:20.092Z,100.00
2023-04-20T22:22:47.238Z,100.00
2023-04-20T22:25:14.250Z,100.00
2023-04-20T22:27:41.305Z,100.00
2023-04-20T22:30:09.686Z,100.00
2023-04-20T22:32:38.414Z,100.00
2023-04-20T22:35:05.927Z,100.00
2023-04-20T22:37:32.856Z,100.00
2023-04-20T22:39:59.740Z,100.00
2023-04-20T22:42:26.813Z,100.00
2023-04-20T22:44:53.787Z,100.00
2023-04-20T22:47:20.837Z,100.00
2023-04-20T22:49:48.994Z,100.00
2023-04-20T22:52:16.070Z,100.00
2023-04-20T22:54:47.888Z,100.00
2023-04-20T22:57:18.246Z,100.00
2023-04-20T22:59:45.550Z,100.00
2023-04-20T23:02:12.766Z,100.00
2023-04-20T23:04:40.131Z,100.00
2023-04-20T23:07:08.206Z,100.00
2023-04-20T23:09:39.791Z,100.00
2023-04-20T23:12:11.795Z,100.00
2023-04-20T23:14:42.519Z,100.00
2023-04-20T23:17:10.582Z,100.00
2023-04-20T23:19:38.465Z,100.00
2023-04-20T23:22:08.798Z,100.00
2023-04-20T23:24:36.298Z,100.00
2023-04-20T23:27:03.471Z,100.00
2023-04-20T23:29:30.398Z,100.00
2023-04-20T23:31:57.315Z,100.00
2023-04-20T23:34:24.292Z,100.00
2023-04-20T23:36:53.833Z,100.00
2023-04-20T23:39:21.415Z,100.00
2023-04-20T23:41:48.590Z,100.00
2023-04-20T23:44:15.517Z,100.00
2023-04-20T23:46:42.397Z,100.00
2023-04-20T23:49:09.398Z,100.00
2023-04-20T23:51:37.489Z,100.00
2023-04-20T23:54:04.492Z,100.00
2023-04-20T23:56:31.487Z,100.00
2023-04-20T23:58:59.341Z,100.00
